createdAt,value
2022-08-19T00:00:15.087Z,99438.47
2022-08-19T00:05:17.111Z,99436.75
2022-08-19T00:10:20.634Z,99425.09
2022-08-19T00:15:23.551Z,99406.09
2022-08-19T00:20:25.219Z,99395.41
2022-08-19T00:25:30.350Z,99383.50
2022-08-19T00:30:32.446Z,99376.16
2022-08-19T00:35:34.617Z,99376.69
2022-08-19T00:40:36.280Z,99378.09
2022-08-19T00:45:37.983Z,99392.88
2022-08-19T00:50:52.062Z,99413.53
2022-08-19T00:55:57.686Z,99396.50
2022-08-19T01:00:59.563Z,99363.34
2022-08-19T01:06:01.404Z,99371.28
2022-08-19T01:11:03.640Z,99370.88
2022-08-19T01:16:13.502Z,99361.94
2022-08-19T01:21:30.867Z,99347.50
2022-08-19T01:26:32.476Z,99332.22
2022-08-19T01:31:34.666Z,99329.28
2022-08-19T01:36:42.924Z,99331.41
2022-08-19T01:41:44.728Z,99327.75
2022-08-19T01:46:48.857Z,99328.59
2022-08-19T01:51:50.725Z,99321.03
2022-08-19T01:56:56.097Z,99324.41
2022-08-19T02:01:57.760Z,99329.63
2022-08-19T02:06:59.336Z,99339.06
2022-08-19T02:12:01.715Z,99325.13
2022-08-19T02:17:03.921Z,99318.03
2022-08-19T02:22:05.893Z,99299.75
2022-08-19T02:27:07.667Z,99303.44
2022-08-19T02:32:09.275Z,99299.94
2022-08-19T02:37:30.919Z,99290.44
2022-08-19T02:42:37.014Z,99298.78
2022-08-19T02:47:38.748Z,99300.53
2022-08-19T02:52:40.351Z,99304.03
2022-08-19T02:57:43.028Z,99297.31
2022-08-19T03:02:44.710Z,99289.50
2022-08-19T03:07:47.566Z,99298.88
2022-08-19T03:12:49.254Z,99311.84
2022-08-19T03:17:51.022Z,99336.91
2022-08-19T03:22:52.686Z,99347.53
2022-08-19T03:27:54.373Z,99338.72
2022-08-19T03:32:57.048Z,99332.75
2022-08-19T03:38:01.842Z,99329.84
2022-08-19T03:43:03.893Z,99336.25
2022-08-19T03:48:05.636Z,99324.16
2022-08-19T03:53:08.377Z,99343.00
2022-08-19T03:58:12.059Z,99351.09
2022-08-19T04:03:13.671Z,99347.31
2022-08-19T04:08:19.134Z,99361.75
2022-08-19T04:13:20.774Z,99360.06
2022-08-19T04:18:22.343Z,99364.69
2022-08-19T04:23:24.766Z,99376.50
2022-08-19T04:28:27.100Z,99367.53
2022-08-19T04:33:29.643Z,99369.66
2022-08-19T04:38:31.302Z,99365.44
2022-08-19T04:43:33.808Z,99363.88
2022-08-19T04:48:36.568Z,99351.75
2022-08-19T04:53:47.048Z,99356.81
2022-08-19T04:58:49.489Z,99342.78
2022-08-19T05:03:51.520Z,99341.84
2022-08-19T05:08:53.181Z,99343.31
2022-08-19T05:13:55.752Z,99347.84
2022-08-19T05:19:16.031Z,99356.97
2022-08-19T05:24:18.261Z,99354.28
2022-08-19T05:29:22.398Z,99344.22
2022-08-19T05:34:27.009Z,99343.22
2022-08-19T05:39:31.712Z,99368.44
2022-08-19T05:44:37.375Z,99365.75
2022-08-19T05:49:39.391Z,99358.28
2022-08-19T05:54:42.584Z,99350.97
2022-08-19T05:59:46.796Z,99355.97
2022-08-19T06:04:48.389Z,99372.44
2022-08-19T06:09:59.811Z,99374.00
2022-08-19T06:15:06.913Z,99393.97
2022-08-19T06:20:12.981Z,99414.44
2022-08-19T06:25:15.715Z,99408.59
2022-08-19T06:30:17.580Z,99409.47
2022-08-19T06:35:19.464Z,99433.59
2022-08-19T06:40:21.209Z,99449.13
2022-08-19T06:45:34.405Z,99467.06
2022-08-19T06:50:39.396Z,99480.53
2022-08-19T06:55:42.147Z,99480.31
2022-08-19T07:00:43.834Z,99481.56
2022-08-19T07:05:46.258Z,99481.66
2022-08-19T07:10:48.947Z,99482.66
2022-08-19T07:15:51.293Z,99476.75
2022-08-19T07:21:04.319Z,99490.28
2022-08-19T07:26:20.298Z,99507.47
2022-08-19T07:31:31.111Z,99502.88
2022-08-19T07:36:33.332Z,99507.59
2022-08-19T07:41:37.992Z,99504.66
2022-08-19T07:46:42.178Z,99507.81
2022-08-19T07:51:49.350Z,99492.66
2022-08-19T07:56:52.508Z,99501.56
2022-08-19T08:01:54.914Z,99512.72
2022-08-19T08:07:15.514Z,99514.63
2022-08-19T08:12:34.101Z,99523.75
2022-08-19T08:17:49.678Z,99523.09
2022-08-19T08:23:12.099Z,99530.63
2022-08-19T08:28:17.656Z,99520.63
2022-08-19T08:33:32.769Z,99508.69
2022-08-19T08:38:41.706Z,99511.41
2022-08-19T08:43:47.282Z,99513.41
2022-08-19T08:49:15.184Z,99522.44
2022-08-19T08:54:21.624Z,99524.53
2022-08-19T08:59:33.392Z,99512.09
2022-08-19T09:04:36.871Z,99509.13
2022-08-19T09:09:42.904Z,99468.16
2022-08-19T09:15:05.443Z,99490.63
2022-08-19T09:20:11.273Z,99505.81
2022-08-19T09:25:16.400Z,99499.81
2022-08-19T09:30:24.886Z,99493.22
2022-08-19T09:35:29.881Z,99499.19
2022-08-19T09:40:35.465Z,99510.59
2022-08-19T09:45:40.417Z,99500.03
2022-08-19T09:50:51.874Z,99499.47
2022-08-19T09:55:56.290Z,99495.81
2022-08-19T10:00:59.655Z,99510.38
2022-08-19T10:06:04.417Z,99510.47
2022-08-19T10:11:27.259Z,99501.03
2022-08-19T10:16:30.160Z,99511.94
2022-08-19T10:21:33.974Z,99508.88
2022-08-19T10:26:38.147Z,99513.91
2022-08-19T10:31:59.788Z,99501.31
2022-08-19T10:37:02.146Z,99497.41
2022-08-19T10:42:08.037Z,99494.06
2022-08-19T10:47:21.875Z,99487.41
2022-08-19T10:52:38.981Z,99498.59
2022-08-19T10:58:01.278Z,99501.38
2022-08-19T11:03:03.060Z,99504.16
2022-08-19T11:08:22.092Z,99495.78
2022-08-19T11:13:25.664Z,99497.47
2022-08-19T11:18:27.561Z,99492.44
2022-08-19T11:23:29.187Z,99497.97
2022-08-19T11:28:30.984Z,99493.81
2022-08-19T11:33:33.765Z,99489.06
2022-08-19T11:38:36.692Z,99491.28
2022-08-19T11:43:38.780Z,99501.63
2022-08-19T11:48:41.136Z,99502.91
2022-08-19T11:53:42.797Z,99503.53
2022-08-19T11:58:44.754Z,99492.13
2022-08-19T12:03:48.465Z,99490.72
2022-08-19T12:08:50.650Z,99493.25
2022-08-19T12:13:53.169Z,99488.78
2022-08-19T12:18:56.730Z,99485.16
2022-08-19T12:24:00.036Z,99491.88
2022-08-19T12:29:01.705Z,99485.44
2022-08-19T12:34:03.500Z,99499.09
2022-08-19T12:39:07.566Z,99494.63
2022-08-19T12:44:13.419Z,99494.06
2022-08-19T12:49:52.172Z,99494.03
2022-08-19T12:54:38.503Z,99497.41
2022-08-19T12:59:40.162Z,99505.53
2022-08-19T13:04:42.142Z,99500.22
2022-08-19T13:09:43.815Z,99497.44
2022-08-19T13:14:51.399Z,99494.63
2022-08-19T13:19:53.123Z,99483.44
2022-08-19T13:24:54.881Z,99486.50
2022-08-19T13:30:15.044Z,99480.56
2022-08-19T13:35:18.067Z,99480.28
2022-08-19T13:40:27.207Z,99486.47
2022-08-19T13:45:30.865Z,99486.25
2022-08-19T13:50:32.535Z,99485.75
2022-08-19T13:55:34.704Z,99490.78
2022-08-19T14:00:40.163Z,99488.53
2022-08-19T14:05:41.815Z,99486.88
2022-08-19T14:10:45.747Z,99474.56
2022-08-19T14:15:48.448Z,99484.91
2022-08-19T14:20:50.133Z,99481.78
2022-08-19T14:25:51.804Z,99476.50
2022-08-19T14:30:56.547Z,99473.97
2022-08-19T14:35:59.602Z,99474.81
2022-08-19T14:41:09.089Z,99473.41
2022-08-19T14:46:11.541Z,99470.59
2022-08-19T14:51:13.918Z,99472.03
2022-08-19T14:56:19.259Z,99468.94
2022-08-19T15:01:23.515Z,99458.88
2022-08-19T15:06:26.302Z,99468.94
2022-08-19T15:11:28.859Z,99461.63
2022-08-19T15:16:30.978Z,99461.06
2022-08-19T15:21:33.375Z,99470.22
2022-08-19T15:26:34.990Z,99468.78
2022-08-19T15:31:38.237Z,99467.66
2022-08-19T15:36:40.524Z,99482.56
2022-08-19T15:41:42.911Z,99483.88
2022-08-19T15:46:48.750Z,99482.94
2022-08-19T15:51:53.005Z,99484.75
2022-08-19T15:57:13.307Z,99491.09
2022-08-19T16:02:37.213Z,99505.31
2022-08-19T16:07:39.212Z,99502.38
2022-08-19T16:12:41.641Z,99491.69
2022-08-19T16:17:43.551Z,99490.41
2022-08-19T16:22:59.218Z,99467.03
2022-08-19T16:28:06.538Z,99474.06
2022-08-19T16:33:10.169Z,99471.75
2022-08-19T16:38:11.954Z,99485.78
2022-08-19T16:43:13.527Z,99496.59
2022-08-19T16:48:15.114Z,99508.03
2022-08-19T16:53:19.548Z,99506.69
2022-08-19T16:58:22.459Z,99496.50
2022-08-19T17:03:35.805Z,99499.34
2022-08-19T17:08:37.729Z,99508.16
2022-08-19T17:13:39.288Z,99523.63
2022-08-19T17:18:40.920Z,99522.88
2022-08-19T17:23:44.107Z,99515.84
2022-08-19T17:28:51.352Z,99518.84
2022-08-19T17:33:55.032Z,99529.63
2022-08-19T17:39:00.560Z,99533.28
2022-08-19T17:44:03.387Z,99552.94
2022-08-19T17:49:05.045Z,99570.88
2022-08-19T17:54:15.938Z,99586.63
2022-08-19T17:59:17.547Z,99591.59
2022-08-19T18:04:20.065Z,99601.03
2022-08-19T18:09:38.715Z,99594.75
2022-08-19T18:14:44.284Z,99589.03
2022-08-19T18:19:47.642Z,99594.53
2022-08-19T18:24:49.627Z,99592.41
2022-08-19T18:29:51.287Z,99592.69
2022-08-19T18:34:53.725Z,99597.38
2022-08-19T18:40:14.089Z,99599.34
2022-08-19T18:45:34.368Z,99608.06
2022-08-19T18:50:37.534Z,99616.78
2022-08-19T18:55:39.359Z,99621.16
2022-08-19T19:00:41.977Z,99625.41
2022-08-19T19:05:44.369Z,99647.19
2022-08-19T19:10:45.999Z,99670.78
2022-08-19T19:15:48.807Z,99700.47
2022-08-19T19:20:50.415Z,99711.66
2022-08-19T19:25:52.434Z,99698.06
2022-08-19T19:30:58.536Z,99678.97
2022-08-19T19:36:00.202Z,99674.53
2022-08-19T19:41:02.152Z,99656.22
2022-08-19T19:46:03.890Z,99686.81
2022-08-19T19:51:09.247Z,99697.69
2022-08-19T19:56:13.031Z,99728.75
2022-08-19T20:01:21.699Z,99740.09
2022-08-19T20:06:29.079Z,99732.69
2022-08-19T20:11:47.166Z,99733.72
2022-08-19T20:16:49.885Z,99736.97
2022-08-19T20:21:52.206Z,99737.59
2022-08-19T20:26:54.144Z,99722.19
2022-08-19T20:31:57.791Z,99709.69
2022-08-19T20:37:01.117Z,99705.03
2022-08-19T20:42:02.714Z,99695.06
2022-08-19T20:47:04.448Z,99694.47
2022-08-19T20:52:06.592Z,99698.00
2022-08-19T20:57:08.801Z,99699.66
2022-08-19T21:02:11.213Z,99719.34
2022-08-19T21:07:12.793Z,99719.88
2022-08-19T21:12:14.665Z,99724.72
2022-08-19T21:17:16.252Z,99722.94
2022-08-19T21:22:17.823Z,99727.66
2022-08-19T21:27:19.408Z,99713.91
2022-08-19T21:32:21.526Z,99696.09
2022-08-19T21:37:25.614Z,99692.72
2022-08-19T21:42:27.720Z,99700.78
2022-08-19T21:47:29.287Z,99673.63
2022-08-19T21:52:30.969Z,99676.16
2022-08-19T21:57:32.715Z,99663.63
2022-08-19T22:02:34.589Z,99663.88
2022-08-19T22:07:37.010Z,99658.03
2022-08-19T22:12:47.387Z,99636.53
2022-08-19T22:17:54.482Z,99640.13
2022-08-19T22:22:59.465Z,99634.72
2022-08-19T22:28:03.566Z,99650.06
2022-08-19T22:33:09.138Z,99639.94
2022-08-19T22:38:11.988Z,99654.44
2022-08-19T22:43:18.140Z,99648.53
2022-08-19T22:48:22.813Z,99628.97
2022-08-19T22:53:24.398Z,99628.53
2022-08-19T22:58:28.158Z,99647.84
2022-08-19T23:03:30.242Z,99653.06
2022-08-19T23:08:31.826Z,99659.53
2022-08-19T23:13:33.518Z,99645.97
2022-08-19T23:18:35.357Z,99654.44
2022-08-19T23:23:39.342Z,99656.34
2022-08-19T23:28:59.289Z,99651.69
2022-08-19T23:34:01.031Z,99640.22
2022-08-19T23:39:03.006Z,99637.28
2022-08-19T23:44:05.638Z,99640.69
2022-08-19T23:49:16.128Z,99651.97
2022-08-19T23:54:17.796Z,99653.03
2022-08-19T23:59:19.662Z,99651.38
